sensor_id;sensor_type;location;lat;lon;timestamp;P1;durP1;ratioP1;P2;durP2;ratioP2
62582;SDS011;48641;51.676;5.808;2023-02-04T00:01:28;33.47;;;16.40;;
62582;SDS011;48641;51.676;5.808;2023-02-04T00:03:54;28.38;;;15.82;;
62582;SDS011;48641;51.676;5.808;2023-02-04T00:06:19;28.67;;;16.20;;
62582;SDS011;48641;51.676;5.808;2023-02-04T00:08:45;28.60;;;15.23;;
62582;SDS011;48641;51.676;5.808;2023-02-04T00:11:11;27.30;;;15.98;;
62582;SDS011;48641;51.676;5.808;2023-02-04T00:13:36;28.55;;;15.60;;
62582;SDS011;48641;51.676;5.808;2023-02-04T00:16:02;31.88;;;15.50;;
62582;SDS011;48641;51.676;5.808;2023-02-04T00:18:27;26.63;;;15.00;;
62582;SDS011;48641;51.676;5.808;2023-02-04T00:20:53;25.27;;;14.63;;
62582;SDS011;48641;51.676;5.808;2023-02-04T00:23:19;25.63;;;14.52;;
62582;SDS011;48641;51.676;5.808;2023-02-04T00:25:44;28.67;;;14.93;;
62582;SDS011;48641;51.676;5.808;2023-02-04T00:28:10;26.80;;;14.63;;
62582;SDS011;48641;51.676;5.808;2023-02-04T00:30:36;29.23;;;14.57;;
62582;SDS011;48641;51.676;5.808;2023-02-04T00:33:01;28.35;;;14.13;;
62582;SDS011;48641;51.676;5.808;2023-02-04T00:35:27;27.13;;;14.45;;
62582;SDS011;48641;51.676;5.808;2023-02-04T00:37:53;27.55;;;14.52;;
62582;SDS011;48641;51.676;5.808;2023-02-04T00:40:18;27.90;;;14.43;;
62582;SDS011;48641;51.676;5.808;2023-02-04T00:42:44;26.02;;;14.10;;
62582;SDS011;48641;51.676;5.808;2023-02-04T00:45:10;27.55;;;15.10;;
62582;SDS011;48641;51.676;5.808;2023-02-04T00:47:36;25.10;;;13.75;;
62582;SDS011;48641;51.676;5.808;2023-02-04T00:50:02;26.58;;;14.55;;
62582;SDS011;48641;51.676;5.808;2023-02-04T00:52:28;24.70;;;14.27;;
62582;SDS011;48641;51.676;5.808;2023-02-04T00:54:53;22.98;;;13.15;;
62582;SDS011;48641;51.676;5.808;2023-02-04T00:57:19;26.08;;;13.45;;
62582;SDS011;48641;51.676;5.808;2023-02-04T00:59:44;26.85;;;13.68;;
62582;SDS011;48641;51.676;5.808;2023-02-04T01:02:10;23.73;;;12.93;;
62582;SDS011;48641;51.676;5.808;2023-02-04T01:04:36;25.52;;;13.68;;
62582;SDS011;48641;51.676;5.808;2023-02-04T01:07:02;24.02;;;13.20;;
62582;SDS011;48641;51.676;5.808;2023-02-04T01:09:27;22.23;;;12.95;;
62582;SDS011;48641;51.676;5.808;2023-02-04T01:11:53;24.90;;;13.73;;
62582;SDS011;48641;51.676;5.808;2023-02-04T01:14:19;22.65;;;13.10;;
62582;SDS011;48641;51.676;5.808;2023-02-04T01:16:44;25.75;;;13.60;;
62582;SDS011;48641;51.676;5.808;2023-02-04T01:19:10;24.85;;;13.15;;
62582;SDS011;48641;51.676;5.808;2023-02-04T01:21:36;25.52;;;13.25;;
62582;SDS011;48641;51.676;5.808;2023-02-04T01:24:02;23.98;;;13.20;;
62582;SDS011;48641;51.676;5.808;2023-02-04T01:26:28;21.92;;;11.75;;
62582;SDS011;48641;51.676;5.808;2023-02-04T01:28:53;23.23;;;12.88;;
62582;SDS011;48641;51.676;5.808;2023-02-04T01:31:19;23.58;;;12.80;;
62582;SDS011;48641;51.676;5.808;2023-02-04T01:33:45;21.13;;;12.23;;
62582;SDS011;48641;51.676;5.808;2023-02-04T01:36:10;22.08;;;12.13;;
62582;SDS011;48641;51.676;5.808;2023-02-04T01:38:36;19.65;;;12.48;;
62582;SDS011;48641;51.676;5.808;2023-02-04T01:41:02;22.67;;;12.68;;
62582;SDS011;48641;51.676;5.808;2023-02-04T01:43:28;21.88;;;12.15;;
62582;SDS011;48641;51.676;5.808;2023-02-04T01:45:55;21.80;;;11.93;;
62582;SDS011;48641;51.676;5.808;2023-02-04T01:48:21;21.88;;;11.82;;
62582;SDS011;48641;51.676;5.808;2023-02-04T01:50:48;22.90;;;12.15;;
62582;SDS011;48641;51.676;5.808;2023-02-04T01:53:15;19.88;;;11.68;;
62582;SDS011;48641;51.676;5.808;2023-02-04T01:55:45;22.73;;;11.68;;
62582;SDS011;48641;51.676;5.808;2023-02-04T01:58:10;19.52;;;11.25;;
62582;SDS011;48641;51.676;5.808;2023-02-04T02:00:37;21.77;;;11.20;;
62582;SDS011;48641;51.676;5.808;2023-02-04T02:03:03;22.20;;;11.52;;
62582;SDS011;48641;51.676;5.808;2023-02-04T02:05:32;20.40;;;11.38;;
62582;SDS011;48641;51.676;5.808;2023-02-04T02:08:07;21.15;;;10.85;;
62582;SDS011;48641;51.676;5.808;2023-02-04T02:10:34;19.48;;;10.77;;
62582;SDS011;48641;51.676;5.808;2023-02-04T02:13:02;18.92;;;10.65;;
62582;SDS011;48641;51.676;5.808;2023-02-04T02:15:29;20.38;;;11.02;;
62582;SDS011;48641;51.676;5.808;2023-02-04T02:17:54;20.38;;;10.52;;
62582;SDS011;48641;51.676;5.808;2023-02-04T02:20:21;20.20;;;11.15;;
62582;SDS011;48641;51.676;5.808;2023-02-04T02:23:05;21.02;;;10.93;;
62582;SDS011;48641;51.676;5.808;2023-02-04T02:25:47;20.13;;;10.75;;
62582;SDS011;48641;51.676;5.808;2023-02-04T02:28:14;20.25;;;10.48;;
62582;SDS011;48641;51.676;5.808;2023-02-04T02:30:42;18.55;;;10.15;;
62582;SDS011;48641;51.676;5.808;2023-02-04T02:33:10;18.30;;;10.38;;
62582;SDS011;48641;51.676;5.808;2023-02-04T02:35:39;18.98;;;9.88;;
62582;SDS011;48641;51.676;5.808;2023-02-04T02:38:07;20.00;;;10.13;;
62582;SDS011;48641;51.676;5.808;2023-02-04T02:40:36;18.02;;;10.20;;
62582;SDS011;48641;51.676;5.808;2023-02-04T02:43:03;19.45;;;10.63;;
62582;SDS011;48641;51.676;5.808;2023-02-04T02:45:30;18.95;;;9.95;;
62582;SDS011;48641;51.676;5.808;2023-02-04T02:47:57;18.85;;;9.93;;
62582;SDS011;48641;51.676;5.808;2023-02-04T02:50:25;19.95;;;10.10;;
62582;SDS011;48641;51.676;5.808;2023-02-04T02:52:52;18.98;;;10.05;;
62582;SDS011;48641;51.676;5.808;2023-02-04T02:55:19;18.15;;;9.98;;
62582;SDS011;48641;51.676;5.808;2023-02-04T02:57:49;19.83;;;9.93;;
62582;SDS011;48641;51.676;5.808;2023-02-04T03:00:20;17.98;;;9.40;;
62582;SDS011;48641;51.676;5.808;2023-02-04T03:03:07;18.40;;;9.38;;
62582;SDS011;48641;51.676;5.808;2023-02-04T03:05:40;18.10;;;9.00;;
62582;SDS011;48641;51.676;5.808;2023-02-04T03:08:07;17.90;;;8.88;;
62582;SDS011;48641;51.676;5.808;2023-02-04T03:10:34;18.40;;;8.95;;
62582;SDS011;48641;51.676;5.808;2023-02-04T03:13:00;17.85;;;9.70;;
62582;SDS011;48641;51.676;5.808;2023-02-04T03:15:27;18.83;;;9.10;;
62582;SDS011;48641;51.676;5.808;2023-02-04T03:17:52;16.02;;;8.70;;
62582;SDS011;48641;51.676;5.808;2023-02-04T03:20:20;16.00;;;8.45;;
62582;SDS011;48641;51.676;5.808;2023-02-04T03:22:49;17.52;;;8.52;;
62582;SDS011;48641;51.676;5.808;2023-02-04T03:25:15;16.05;;;8.95;;
62582;SDS011;48641;51.676;5.808;2023-02-04T03:27:41;18.60;;;9.68;;
62582;SDS011;48641;51.676;5.808;2023-02-04T03:30:07;16.42;;;8.75;;
62582;SDS011;48641;51.676;5.808;2023-02-04T03:32:33;16.70;;;8.50;;
62582;SDS011;48641;51.676;5.808;2023-02-04T03:34:59;18.05;;;9.02;;
62582;SDS011;48641;51.676;5.808;2023-02-04T03:37:24;17.38;;;8.65;;
62582;SDS011;48641;51.676;5.808;2023-02-04T03:39:50;15.68;;;8.90;;
62582;SDS011;48641;51.676;5.808;2023-02-04T03:42:16;17.33;;;8.90;;
62582;SDS011;48641;51.676;5.808;2023-02-04T03:44:41;14.50;;;7.97;;
62582;SDS011;48641;51.676;5.808;2023-02-04T03:47:08;15.18;;;8.25;;
62582;SDS011;48641;51.676;5.808;2023-02-04T03:49:33;15.45;;;8.23;;
62582;SDS011;48641;51.676;5.808;2023-02-04T03:52:00;15.85;;;7.93;;
62582;SDS011;48641;51.676;5.808;2023-02-04T03:54:27;15.50;;;8.68;;
62582;SDS011;48641;51.676;5.808;2023-02-04T03:56:52;15.55;;;7.97;;
62582;SDS011;48641;51.676;5.808;2023-02-04T03:59:18;15.90;;;8.30;;
62582;SDS011;48641;51.676;5.808;2023-02-04T04:01:44;15.55;;;7.97;;
62582;SDS011;48641;51.676;5.808;2023-02-04T04:04:09;17.00;;;8.43;;
62582;SDS011;48641;51.676;5.808;2023-02-04T04:06:35;16.55;;;8.02;;
62582;SDS011;48641;51.676;5.808;2023-02-04T04:09:00;15.00;;;7.88;;
62582;SDS011;48641;51.676;5.808;2023-02-04T04:11:26;16.52;;;8.73;;
62582;SDS011;48641;51.676;5.808;2023-02-04T04:13:52;14.48;;;7.85;;
62582;SDS011;48641;51.676;5.808;2023-02-04T04:16:17;14.40;;;7.00;;
62582;SDS011;48641;51.676;5.808;2023-02-04T04:18:44;14.02;;;7.65;;
62582;SDS011;48641;51.676;5.808;2023-02-04T04:21:10;14.68;;;7.68;;
62582;SDS011;48641;51.676;5.808;2023-02-04T04:23:36;15.88;;;7.72;;
62582;SDS011;48641;51.676;5.808;2023-02-04T04:26:01;15.50;;;7.63;;
62582;SDS011;48641;51.676;5.808;2023-02-04T04:28:27;16.42;;;7.88;;
62582;SDS011;48641;51.676;5.808;2023-02-04T04:30:52;13.65;;;7.18;;
62582;SDS011;48641;51.676;5.808;2023-02-04T04:33:18;15.25;;;7.70;;
62582;SDS011;48641;51.676;5.808;2023-02-04T04:35:44;15.65;;;7.90;;
62582;SDS011;48641;51.676;5.808;2023-02-04T04:38:09;17.38;;;8.18;;
62582;SDS011;48641;51.676;5.808;2023-02-04T04:40:35;14.73;;;7.50;;
62582;SDS011;48641;51.676;5.808;2023-02-04T04:43:01;12.85;;;6.85;;
62582;SDS011;48641;51.676;5.808;2023-02-04T04:45:26;13.57;;;7.40;;
62582;SDS011;48641;51.676;5.808;2023-02-04T04:47:52;14.13;;;7.07;;
62582;SDS011;48641;51.676;5.808;2023-02-04T04:50:18;12.57;;;6.75;;
62582;SDS011;48641;51.676;5.808;2023-02-04T04:52:43;14.32;;;7.57;;
62582;SDS011;48641;51.676;5.808;2023-02-04T04:55:09;14.15;;;7.40;;
62582;SDS011;48641;51.676;5.808;2023-02-04T04:57:35;12.90;;;6.72;;
62582;SDS011;48641;51.676;5.808;2023-02-04T05:00:00;15.32;;;7.40;;
62582;SDS011;48641;51.676;5.808;2023-02-04T05:02:26;12.70;;;6.90;;
62582;SDS011;48641;51.676;5.808;2023-02-04T05:04:52;12.68;;;7.05;;
62582;SDS011;48641;51.676;5.808;2023-02-04T05:07:17;12.32;;;6.45;;
62582;SDS011;48641;51.676;5.808;2023-02-04T05:09:43;13.65;;;6.68;;
62582;SDS011;48641;51.676;5.808;2023-02-04T05:12:08;12.77;;;6.60;;
62582;SDS011;48641;51.676;5.808;2023-02-04T05:14:34;12.30;;;6.05;;
62582;SDS011;48641;51.676;5.808;2023-02-04T05:17:00;13.27;;;6.43;;
62582;SDS011;48641;51.676;5.808;2023-02-04T05:19:25;12.88;;;6.53;;
62582;SDS011;48641;51.676;5.808;2023-02-04T05:21:51;13.38;;;6.45;;
62582;SDS011;48641;51.676;5.808;2023-02-04T05:24:16;13.40;;;6.53;;
62582;SDS011;48641;51.676;5.808;2023-02-04T05:26:42;13.60;;;6.28;;
62582;SDS011;48641;51.676;5.808;2023-02-04T05:29:07;14.05;;;6.47;;
62582;SDS011;48641;51.676;5.808;2023-02-04T05:31:34;13.32;;;6.50;;
62582;SDS011;48641;51.676;5.808;2023-02-04T05:33:59;11.75;;;6.30;;
62582;SDS011;48641;51.676;5.808;2023-02-04T05:36:25;11.70;;;5.70;;
62582;SDS011;48641;51.676;5.808;2023-02-04T05:38:51;11.30;;;6.05;;
62582;SDS011;48641;51.676;5.808;2023-02-04T05:41:17;12.23;;;6.10;;
62582;SDS011;48641;51.676;5.808;2023-02-04T05:43:42;12.63;;;6.22;;
62582;SDS011;48641;51.676;5.808;2023-02-04T05:46:08;13.25;;;6.15;;
62582;SDS011;48641;51.676;5.808;2023-02-04T05:48:34;13.55;;;6.20;;
62582;SDS011;48641;51.676;5.808;2023-02-04T05:50:59;12.15;;;5.82;;
62582;SDS011;48641;51.676;5.808;2023-02-04T05:53:25;12.60;;;5.47;;
62582;SDS011;48641;51.676;5.808;2023-02-04T05:55:50;14.00;;;6.60;;
62582;SDS011;48641;51.676;5.808;2023-02-04T05:58:16;12.27;;;6.05;;
62582;SDS011;48641;51.676;5.808;2023-02-04T06:00:41;11.45;;;5.40;;
62582;SDS011;48641;51.676;5.808;2023-02-04T06:03:07;10.77;;;5.45;;
62582;SDS011;48641;51.676;5.808;2023-02-04T06:05:32;12.13;;;5.70;;
62582;SDS011;48641;51.676;5.808;2023-02-04T06:07:58;13.43;;;5.88;;
62582;SDS011;48641;51.676;5.808;2023-02-04T06:10:24;11.05;;;5.38;;
62582;SDS011;48641;51.676;5.808;2023-02-04T06:12:49;10.75;;;5.47;;
62582;SDS011;48641;51.676;5.808;2023-02-04T06:15:15;12.23;;;5.78;;
62582;SDS011;48641;51.676;5.808;2023-02-04T06:17:40;12.18;;;5.60;;
62582;SDS011;48641;51.676;5.808;2023-02-04T06:20:06;11.35;;;5.45;;
62582;SDS011;48641;51.676;5.808;2023-02-04T06:22:33;12.55;;;5.88;;
62582;SDS011;48641;51.676;5.808;2023-02-04T06:24:58;9.77;;;4.95;;
62582;SDS011;48641;51.676;5.808;2023-02-04T06:27:24;10.95;;;5.32;;
62582;SDS011;48641;51.676;5.808;2023-02-04T06:29:50;12.77;;;5.60;;
62582;SDS011;48641;51.676;5.808;2023-02-04T06:32:17;10.35;;;4.75;;
62582;SDS011;48641;51.676;5.808;2023-02-04T06:34:42;10.20;;;4.72;;
62582;SDS011;48641;51.676;5.808;2023-02-04T06:37:08;11.80;;;5.28;;
62582;SDS011;48641;51.676;5.808;2023-02-04T06:39:34;10.50;;;5.18;;
62582;SDS011;48641;51.676;5.808;2023-02-04T06:41:59;10.20;;;5.10;;
62582;SDS011;48641;51.676;5.808;2023-02-04T06:44:25;11.38;;;5.03;;
62582;SDS011;48641;51.676;5.808;2023-02-04T06:46:51;12.32;;;5.15;;
62582;SDS011;48641;51.676;5.808;2023-02-04T06:49:16;10.27;;;5.20;;
62582;SDS011;48641;51.676;5.808;2023-02-04T06:51:42;11.93;;;4.75;;
62582;SDS011;48641;51.676;5.808;2023-02-04T06:54:07;10.75;;;4.85;;
62582;SDS011;48641;51.676;5.808;2023-02-04T06:56:33;10.52;;;4.63;;
62582;SDS011;48641;51.676;5.808;2023-02-04T06:58:59;10.82;;;4.97;;
62582;SDS011;48641;51.676;5.808;2023-02-04T07:01:24;10.60;;;4.80;;
62582;SDS011;48641;51.676;5.808;2023-02-04T07:03:50;10.15;;;4.72;;
62582;SDS011;48641;51.676;5.808;2023-02-04T07:06:15;11.73;;;5.00;;
62582;SDS011;48641;51.676;5.808;2023-02-04T07:08:41;11.45;;;4.93;;
62582;SDS011;48641;51.676;5.808;2023-02-04T07:11:06;10.80;;;5.03;;
62582;SDS011;48641;51.676;5.808;2023-02-04T07:13:32;12.23;;;4.95;;
62582;SDS011;48641;51.676;5.808;2023-02-04T07:15:57;12.02;;;4.53;;
62582;SDS011;48641;51.676;5.808;2023-02-04T07:18:23;9.57;;;4.18;;
62582;SDS011;48641;51.676;5.808;2023-02-04T07:20:49;9.80;;;4.88;;
62582;SDS011;48641;51.676;5.808;2023-02-04T07:23:14;10.13;;;4.68;;
62582;SDS011;48641;51.676;5.808;2023-02-04T07:25:40;12.18;;;4.90;;
62582;SDS011;48641;51.676;5.808;2023-02-04T07:28:05;10.13;;;4.55;;
62582;SDS011;48641;51.676;5.808;2023-02-04T07:30:31;10.23;;;4.03;;
62582;SDS011;48641;51.676;5.808;2023-02-04T07:32:57;10.23;;;4.57;;
62582;SDS011;48641;51.676;5.808;2023-02-04T07:35:22;10.88;;;4.93;;
62582;SDS011;48641;51.676;5.808;2023-02-04T07:37:48;9.98;;;4.47;;
62582;SDS011;48641;51.676;5.808;2023-02-04T07:40:14;10.45;;;4.65;;
62582;SDS011;48641;51.676;5.808;2023-02-04T07:42:40;9.52;;;4.55;;
62582;SDS011;48641;51.676;5.808;2023-02-04T07:45:05;10.00;;;4.60;;
62582;SDS011;48641;51.676;5.808;2023-02-04T07:47:32;8.65;;;4.28;;
62582;SDS011;48641;51.676;5.808;2023-02-04T07:49:57;9.25;;;4.57;;
62582;SDS011;48641;51.676;5.808;2023-02-04T07:52:23;10.00;;;4.90;;
62582;SDS011;48641;51.676;5.808;2023-02-04T07:54:49;9.63;;;4.22;;
62582;SDS011;48641;51.676;5.808;2023-02-04T07:57:16;9.77;;;4.43;;
62582;SDS011;48641;51.676;5.808;2023-02-04T07:59:43;11.05;;;4.35;;
62582;SDS011;48641;51.676;5.808;2023-02-04T08:02:09;10.70;;;4.28;;
62582;SDS011;48641;51.676;5.808;2023-02-04T08:04:36;9.73;;;4.00;;
62582;SDS011;48641;51.676;5.808;2023-02-04T08:07:03;9.32;;;3.97;;
62582;SDS011;48641;51.676;5.808;2023-02-04T08:09:29;10.75;;;4.25;;
62582;SDS011;48641;51.676;5.808;2023-02-04T08:11:54;10.30;;;4.30;;
62582;SDS011;48641;51.676;5.808;2023-02-04T08:14:20;8.77;;;3.60;;
62582;SDS011;48641;51.676;5.808;2023-02-04T08:16:46;8.48;;;4.30;;
62582;SDS011;48641;51.676;5.808;2023-02-04T08:19:11;9.52;;;3.80;;
62582;SDS011;48641;51.676;5.808;2023-02-04T08:21:42;10.93;;;4.10;;
62582;SDS011;48641;51.676;5.808;2023-02-04T08:26:38;8.75;;;3.60;;
62582;SDS011;48641;51.676;5.808;2023-02-04T08:29:04;10.07;;;3.85;;
62582;SDS011;48641;51.676;5.808;2023-02-04T08:31:29;10.90;;;4.20;;
62582;SDS011;48641;51.676;5.808;2023-02-04T08:33:55;9.10;;;3.63;;
62582;SDS011;48641;51.676;5.808;2023-02-04T08:36:22;8.35;;;3.67;;
62582;SDS011;48641;51.676;5.808;2023-02-04T08:38:47;16.17;;;4.57;;
62582;SDS011;48641;51.676;5.808;2023-02-04T08:41:13;32.83;;;5.50;;
62582;SDS011;48641;51.676;5.808;2023-02-04T08:43:38;45.95;;;6.80;;
62582;SDS011;48641;51.676;5.808;2023-02-04T08:46:04;31.85;;;5.43;;
62582;SDS011;48641;51.676;5.808;2023-02-04T08:48:30;38.47;;;6.00;;
62582;SDS011;48641;51.676;5.808;2023-02-04T08:50:55;32.80;;;6.15;;
62582;SDS011;48641;51.676;5.808;2023-02-04T08:53:21;60.13;;;7.95;;
62582;SDS011;48641;51.676;5.808;2023-02-04T08:55:47;76.63;;;9.50;;
62582;SDS011;48641;51.676;5.808;2023-02-04T08:58:12;62.22;;;8.40;;
62582;SDS011;48641;51.676;5.808;2023-02-04T09:00:38;79.28;;;9.70;;
62582;SDS011;48641;51.676;5.808;2023-02-04T09:03:03;50.90;;;7.47;;
62582;SDS011;48641;51.676;5.808;2023-02-04T09:05:29;40.70;;;6.80;;
62582;SDS011;48641;51.676;5.808;2023-02-04T09:07:54;51.58;;;7.82;;
62582;SDS011;48641;51.676;5.808;2023-02-04T09:10:20;38.30;;;6.72;;
62582;SDS011;48641;51.676;5.808;2023-02-04T09:12:46;36.28;;;5.93;;
62582;SDS011;48641;51.676;5.808;2023-02-04T09:15:12;62.97;;;10.20;;
62582;SDS011;48641;51.676;5.808;2023-02-04T09:17:37;49.55;;;8.68;;
62582;SDS011;48641;51.676;5.808;2023-02-04T09:20:03;45.70;;;8.43;;
62582;SDS011;48641;51.676;5.808;2023-02-04T09:22:29;34.80;;;8.18;;
62582;SDS011;48641;51.676;5.808;2023-02-04T09:24:55;43.97;;;7.97;;
62582;SDS011;48641;51.676;5.808;2023-02-04T09:27:21;46.22;;;9.55;;
62582;SDS011;48641;51.676;5.808;2023-02-04T09:29:47;82.75;;;9.40;;
62582;SDS011;48641;51.676;5.808;2023-02-04T09:32:12;59.63;;;9.70;;
62582;SDS011;48641;51.676;5.808;2023-02-04T09:34:38;60.25;;;10.55;;
62582;SDS011;48641;51.676;5.808;2023-02-04T09:37:03;49.55;;;9.90;;
62582;SDS011;48641;51.676;5.808;2023-02-04T09:39:29;52.20;;;9.75;;
62582;SDS011;48641;51.676;5.808;2023-02-04T09:41:55;55.97;;;9.13;;
62582;SDS011;48641;51.676;5.808;2023-02-04T09:44:21;41.92;;;8.27;;
62582;SDS011;48641;51.676;5.808;2023-02-04T09:49:16;49.50;;;9.40;;
62582;SDS011;48641;51.676;5.808;2023-02-04T09:51:42;101.70;;;15.25;;
62582;SDS011;48641;51.676;5.808;2023-02-04T09:54:13;83.03;;;12.85;;
62582;SDS011;48641;51.676;5.808;2023-02-04T09:56:41;57.83;;;9.70;;
62582;SDS011;48641;51.676;5.808;2023-02-04T09:59:14;72.15;;;10.10;;
62582;SDS011;48641;51.676;5.808;2023-02-04T10:01:42;224.50;;;23.90;;
62582;SDS011;48641;51.676;5.808;2023-02-04T10:04:09;171.63;;;21.45;;
62582;SDS011;48641;51.676;5.808;2023-02-04T10:06:39;108.78;;;15.40;;
62582;SDS011;48641;51.676;5.808;2023-02-04T10:09:07;90.00;;;13.95;;
62582;SDS011;48641;51.676;5.808;2023-02-04T10:11:35;105.82;;;13.23;;
62582;SDS011;48641;51.676;5.808;2023-02-04T10:14:03;93.50;;;13.70;;
62582;SDS011;48641;51.676;5.808;2023-02-04T10:16:29;92.50;;;13.13;;
62582;SDS011;48641;51.676;5.808;2023-02-04T10:18:57;82.45;;;13.65;;
62582;SDS011;48641;51.676;5.808;2023-02-04T10:21:27;90.50;;;11.68;;
62582;SDS011;48641;51.676;5.808;2023-02-04T10:23:57;62.83;;;10.95;;
62582;SDS011;48641;51.676;5.808;2023-02-04T10:26:26;59.33;;;11.70;;
62582;SDS011;48641;51.676;5.808;2023-02-04T10:34:05;66.53;;;11.07;;
62582;SDS011;48641;51.676;5.808;2023-02-04T10:36:45;52.92;;;10.18;;
62582;SDS011;48641;51.676;5.808;2023-02-04T10:39:16;62.72;;;12.27;;
62582;SDS011;48641;51.676;5.808;2023-02-04T10:41:45;55.10;;;11.00;;
62582;SDS011;48641;51.676;5.808;2023-02-04T10:44:12;46.80;;;9.30;;
62582;SDS011;48641;51.676;5.808;2023-02-04T10:46:39;56.25;;;12.52;;
62582;SDS011;48641;51.676;5.808;2023-02-04T10:49:16;42.20;;;9.45;;
62582;SDS011;48641;51.676;5.808;2023-02-04T10:51:43;34.08;;;8.48;;
62582;SDS011;48641;51.676;5.808;2023-02-04T10:54:10;39.97;;;12.32;;
62582;SDS011;48641;51.676;5.808;2023-02-04T10:56:59;36.95;;;7.95;;
62582;SDS011;48641;51.676;5.808;2023-02-04T10:59:33;33.73;;;10.17;;
62582;SDS011;48641;51.676;5.808;2023-02-04T11:02:00;40.05;;;7.82;;
62582;SDS011;48641;51.676;5.808;2023-02-04T11:04:40;31.63;;;6.80;;
62582;SDS011;48641;51.676;5.808;2023-02-04T11:07:09;49.25;;;6.88;;
62582;SDS011;48641;51.676;5.808;2023-02-04T11:09:39;34.25;;;7.03;;
62582;SDS011;48641;51.676;5.808;2023-02-04T11:14:43;142.75;;;78.07;;
62582;SDS011;48641;51.676;5.808;2023-02-04T11:17:19;73.50;;;17.23;;
62582;SDS011;48641;51.676;5.808;2023-02-04T11:19:45;39.75;;;11.35;;
62582;SDS011;48641;51.676;5.808;2023-02-04T11:24:48;32.10;;;12.68;;
62582;SDS011;48641;51.676;5.808;2023-02-04T11:27:22;41.08;;;11.13;;
62582;SDS011;48641;51.676;5.808;2023-02-04T11:29:49;33.40;;;7.25;;
62582;SDS011;48641;51.676;5.808;2023-02-04T11:32:34;38.40;;;6.78;;
62582;SDS011;48641;51.676;5.808;2023-02-04T11:37:37;39.13;;;8.93;;
62582;SDS011;48641;51.676;5.808;2023-02-04T11:40:46;29.00;;;8.43;;
62582;SDS011;48641;51.676;5.808;2023-02-04T11:43:16;24.40;;;6.10;;
62582;SDS011;48641;51.676;5.808;2023-02-04T11:45:41;46.58;;;6.93;;
62582;SDS011;48641;51.676;5.808;2023-02-04T11:48:19;28.90;;;6.05;;
62582;SDS011;48641;51.676;5.808;2023-02-04T11:50:55;72.43;;;9.33;;
62582;SDS011;48641;51.676;5.808;2023-02-04T11:53:29;45.45;;;7.30;;
62582;SDS011;48641;51.676;5.808;2023-02-04T11:55:56;26.83;;;5.57;;
62582;SDS011;48641;51.676;5.808;2023-02-04T11:58:22;27.35;;;4.97;;
62582;SDS011;48641;51.676;5.808;2023-02-04T12:00:50;26.85;;;5.57;;
62582;SDS011;48641;51.676;5.808;2023-02-04T12:03:21;31.33;;;5.80;;
62582;SDS011;48641;51.676;5.808;2023-02-04T12:05:49;26.55;;;4.95;;
62582;SDS011;48641;51.676;5.808;2023-02-04T12:11:01;24.95;;;4.95;;
62582;SDS011;48641;51.676;5.808;2023-02-04T12:13:27;22.85;;;4.70;;
62582;SDS011;48641;51.676;5.808;2023-02-04T12:16:00;23.30;;;4.78;;
62582;SDS011;48641;51.676;5.808;2023-02-04T12:18:31;21.23;;;4.00;;
62582;SDS011;48641;51.676;5.808;2023-02-04T12:20:58;19.13;;;4.38;;
62582;SDS011;48641;51.676;5.808;2023-02-04T12:23:25;26.42;;;7.50;;
62582;SDS011;48641;51.676;5.808;2023-02-04T12:25:52;25.13;;;5.88;;
62582;SDS011;48641;51.676;5.808;2023-02-04T12:28:18;21.65;;;4.75;;
62582;SDS011;48641;51.676;5.808;2023-02-04T12:30:43;21.10;;;4.85;;
62582;SDS011;48641;51.676;5.808;2023-02-04T12:33:12;20.20;;;5.32;;
62582;SDS011;48641;51.676;5.808;2023-02-04T12:35:37;18.52;;;5.07;;
62582;SDS011;48641;51.676;5.808;2023-02-04T12:38:03;20.83;;;5.00;;
62582;SDS011;48641;51.676;5.808;2023-02-04T12:40:29;19.00;;;4.60;;
62582;SDS011;48641;51.676;5.808;2023-02-04T12:42:55;18.58;;;5.05;;
62582;SDS011;48641;51.676;5.808;2023-02-04T12:45:20;17.63;;;4.43;;
62582;SDS011;48641;51.676;5.808;2023-02-04T12:47:46;16.42;;;4.60;;
62582;SDS011;48641;51.676;5.808;2023-02-04T12:50:13;16.15;;;4.18;;
62582;SDS011;48641;51.676;5.808;2023-02-04T12:52:46;20.50;;;4.15;;
62582;SDS011;48641;51.676;5.808;2023-02-04T12:55:19;15.57;;;4.70;;
62582;SDS011;48641;51.676;5.808;2023-02-04T12:57:45;17.65;;;4.68;;
62582;SDS011;48641;51.676;5.808;2023-02-04T13:00:11;16.30;;;4.38;;
62582;SDS011;48641;51.676;5.808;2023-02-04T13:02:38;17.52;;;3.72;;
62582;SDS011;48641;51.676;5.808;2023-02-04T13:05:04;14.30;;;3.80;;
62582;SDS011;48641;51.676;5.808;2023-02-04T13:07:29;28.40;;;5.50;;
62582;SDS011;48641;51.676;5.808;2023-02-04T13:09:55;20.00;;;4.13;;
62582;SDS011;48641;51.676;5.808;2023-02-04T13:12:21;24.25;;;4.75;;
62582;SDS011;48641;51.676;5.808;2023-02-04T13:14:47;24.25;;;4.20;;
62582;SDS011;48641;51.676;5.808;2023-02-04T13:17:12;19.60;;;4.50;;
62582;SDS011;48641;51.676;5.808;2023-02-04T13:19:38;16.70;;;3.90;;
62582;SDS011;48641;51.676;5.808;2023-02-04T13:22:03;77.55;;;8.85;;
62582;SDS011;48641;51.676;5.808;2023-02-04T13:24:29;45.38;;;6.57;;
62582;SDS011;48641;51.676;5.808;2023-02-04T13:26:55;42.78;;;5.78;;
62582;SDS011;48641;51.676;5.808;2023-02-04T13:29:20;40.00;;;6.03;;
62582;SDS011;48641;51.676;5.808;2023-02-04T13:31:46;43.67;;;6.05;;
62582;SDS011;48641;51.676;5.808;2023-02-04T13:34:12;86.57;;;10.00;;
62582;SDS011;48641;51.676;5.808;2023-02-04T13:36:38;244.52;;;21.92;;
62582;SDS011;48641;51.676;5.808;2023-02-04T13:39:04;263.60;;;25.92;;
62582;SDS011;48641;51.676;5.808;2023-02-04T13:41:30;261.42;;;24.10;;
62582;SDS011;48641;51.676;5.808;2023-02-04T13:43:56;140.20;;;17.00;;
62582;SDS011;48641;51.676;5.808;2023-02-04T13:46:22;217.23;;;21.10;;
62582;SDS011;48641;51.676;5.808;2023-02-04T13:48:48;91.47;;;10.68;;
62582;SDS011;48641;51.676;5.808;2023-02-04T13:51:14;56.28;;;8.50;;
62582;SDS011;48641;51.676;5.808;2023-02-04T13:53:40;28.67;;;5.40;;
62582;SDS011;48641;51.676;5.808;2023-02-04T13:56:06;26.98;;;4.30;;
62582;SDS011;48641;51.676;5.808;2023-02-04T13:58:32;33.55;;;8.98;;
62582;SDS011;48641;51.676;5.808;2023-02-04T14:00:57;23.77;;;6.43;;
62582;SDS011;48641;51.676;5.808;2023-02-04T14:03:23;25.02;;;7.03;;
62582;SDS011;48641;51.676;5.808;2023-02-04T14:05:50;316.05;;;26.17;;
62582;SDS011;48641;51.676;5.808;2023-02-04T14:08:16;62.90;;;11.73;;
62582;SDS011;48641;51.676;5.808;2023-02-04T14:10:42;55.78;;;7.82;;
62582;SDS011;48641;51.676;5.808;2023-02-04T14:13:08;141.63;;;13.85;;
62582;SDS011;48641;51.676;5.808;2023-02-04T14:15:34;68.38;;;8.55;;
62582;SDS011;48641;51.676;5.808;2023-02-04T14:18:01;47.85;;;7.32;;
62582;SDS011;48641;51.676;5.808;2023-02-04T14:20:28;54.80;;;7.90;;
62582;SDS011;48641;51.676;5.808;2023-02-04T14:22:54;159.95;;;15.60;;
62582;SDS011;48641;51.676;5.808;2023-02-04T14:25:19;69.30;;;7.97;;
62582;SDS011;48641;51.676;5.808;2023-02-04T14:27:45;70.50;;;7.13;;
62582;SDS011;48641;51.676;5.808;2023-02-04T14:30:14;118.18;;;12.13;;
62582;SDS011;48641;51.676;5.808;2023-02-04T14:32:41;92.18;;;8.95;;
62582;SDS011;48641;51.676;5.808;2023-02-04T14:35:07;205.32;;;19.35;;
62582;SDS011;48641;51.676;5.808;2023-02-04T14:37:33;152.02;;;15.05;;
62582;SDS011;48641;51.676;5.808;2023-02-04T14:39:58;308.85;;;26.30;;
62582;SDS011;48641;51.676;5.808;2023-02-04T14:42:24;170.00;;;16.80;;
62582;SDS011;48641;51.676;5.808;2023-02-04T14:44:49;232.60;;;23.42;;
62582;SDS011;48641;51.676;5.808;2023-02-04T14:47:15;202.00;;;19.58;;
62582;SDS011;48641;51.676;5.808;2023-02-04T14:49:40;248.30;;;20.08;;